PWSweather.com
Personal Weather Stations
Station Observations

SkegnessGB

Lat: 53.147585, Lon: 0.345774

Elevation: 18

Station Type: Fine Offset WH3080

http://www.skegnessweather.info/

High Low Average
Temperature 61.2°F16.2°C 32.9°F0.5°C 47.2°F8.4°C
Dew Point 43.2°F6.2°C 31.1°F-0.5°C 37.8°F3.2°C
Winds 19.8 mph 31.9 kmh 2.2 mph 3.5 kmh 9.0 mph SSW14.5 kmh SSW
Wind Gusts 23.4 mph37.7 kmh 2.5 mph4.0 kmh 10.0 mph16.1 kmh
Humidity 97% 36% 73%
Pressure 29.73 in1006.8 mb 29.66 in1004.4 mb -
Precipitation 0.00 in0.0 mm - -
Hour Temp Dew Point Humidity Winds Wind Gusts Pressure Precip Precip Rate Daily Precip Total
12:00 AM 38.7°F3.7°C 35.1°F1.7°C 87% 4.7 mph S7.6 kmh S 5.9 mph9.5 kmh 29.67 in1004.7 mb 0.00 in0.0 mm 0.00 in0.0 mm 0.00 in0.0 mm
12:10 AM 38.7°F3.7°C 35.1°F1.7°C 87% 4.4 mph SE7.1 kmh SE 6.6 mph10.6 kmh 29.67 in1004.7 mb 0.00 in0.0 mm 0.00 in0.0 mm 0.00 in0.0 mm
12:20 AM 38.7°F3.7°C 35.1°F1.7°C 87% 4.9 mph SW7.9 kmh SW 7.6 mph12.2 kmh 29.67 in1004.7 mb 0.00 in0.0 mm 0.00 in0.0 mm 0.00 in0.0 mm
12:30 AM 38.5°F3.6°C 34.9°F1.6°C 87% 5.8 mph S9.3 kmh S 9.1 mph14.6 kmh 29.67 in1004.7 mb 0.00 in0.0 mm 0.00 in0.0 mm 0.00 in0.0 mm
12:40 AM 38.3°F3.5°C 35.1°F1.7°C 88% 4.6 mph S7.4 kmh S 8.4 mph13.5 kmh 29.66 in1004.4 mb 0.00 in0.0 mm 0.00 in0.0 mm 0.00 in0.0 mm
12:50 AM 38.1°F3.4°C 34.9°F1.6°C 88% 4.5 mph SW7.2 kmh SW 8.4 mph13.5 kmh 29.67 in1004.7 mb 0.00 in0.0 mm 0.00 in0.0 mm 0.00 in0.0 mm
01:00 AM 37.9°F3.3°C 35.0°F1.7°C 89% 4.4 mph S7.1 kmh S 5.9 mph9.5 kmh 29.67 in1004.7 mb 0.00 in0.0 mm 0.00 in0.0 mm 0.00 in0.0 mm
01:10 AM 37.8°F3.2°C 34.8°F1.6°C 89% 4.0 mph SSE6.4 kmh SSE 7.6 mph12.2 kmh 29.68 in1005.1 mb 0.00 in0.0 mm 0.00 in0.0 mm 0.00 in0.0 mm
01:20 AM 37.8°F3.2°C 35.1°F1.7°C 90% 3.7 mph SW6.0 kmh SW 6.6 mph10.6 kmh 29.67 in1004.7 mb 0.00 in0.0 mm 0.00 in0.0 mm 0.00 in0.0 mm
01:30 AM 37.8°F3.2°C 35.1°F1.7°C 90% 4.2 mph SW6.8 kmh SW 6.6 mph10.6 kmh 29.68 in1005.1 mb 0.00 in0.0 mm 0.00 in0.0 mm 0.00 in0.0 mm
01:40 AM 37.8°F3.2°C 35.1°F1.7°C 90% 4.1 mph S6.6 kmh S 5.9 mph9.5 kmh 29.68 in1005.1 mb 0.00 in0.0 mm 0.00 in0.0 mm 0.00 in0.0 mm
01:50 AM 37.8°F3.2°C 35.1°F1.7°C 90% 4.3 mph ESE6.9 kmh ESE 4.9 mph7.9 kmh 29.68 in1005.1 mb 0.00 in0.0 mm 0.00 in0.0 mm 0.00 in0.0 mm
02:00 AM 37.4°F3.0°C 34.7°F1.5°C 90% 4.8 mph WSW7.7 kmh WSW 6.6 mph10.6 kmh 29.68 in1005.1 mb 0.00 in0.0 mm 0.00 in0.0 mm 0.00 in0.0 mm
02:10 AM 37.0°F2.8°C 34.7°F1.5°C 91% 3.4 mph SSW5.5 kmh SSW 4.2 mph6.8 kmh 29.68 in1005.1 mb 0.00 in0.0 mm 0.00 in0.0 mm 0.00 in0.0 mm
02:20 AM 36.7°F2.6°C 34.6°F1.4°C 92% 4.2 mph SSE6.8 kmh SSE 5.9 mph9.5 kmh 29.68 in1005.1 mb 0.00 in0.0 mm 0.00 in0.0 mm 0.00 in0.0 mm
02:30 AM 36.5°F2.5°C 34.4°F1.3°C 92% 4.0 mph SW6.4 kmh SW 5.9 mph9.5 kmh 29.69 in1005.4 mb 0.00 in0.0 mm 0.00 in0.0 mm 0.00 in0.0 mm
02:40 AM 36.0°F2.2°C 33.9°F1.1°C 92% 4.6 mph SSW7.4 kmh SSW 4.9 mph7.9 kmh 29.69 in1005.4 mb 0.00 in0.0 mm 0.00 in0.0 mm 0.00 in0.0 mm
02:50 AM 35.6°F2.0°C 33.8°F1.0°C 93% 3.3 mph S5.3 kmh S 4.2 mph6.8 kmh 29.69 in1005.4 mb 0.00 in0.0 mm 0.00 in0.0 mm 0.00 in0.0 mm
03:00 AM 35.2°F1.8°C 33.4°F0.8°C 93% 3.2 mph S5.1 kmh S 4.2 mph6.8 kmh 29.69 in1005.4 mb 0.00 in0.0 mm 0.00 in0.0 mm 0.00 in0.0 mm
03:10 AM 34.9°F1.6°C 33.1°F0.6°C 93% 2.6 mph SW4.2 kmh SW 3.4 mph5.5 kmh 29.69 in1005.4 mb 0.00 in0.0 mm 0.00 in0.0 mm 0.00 in0.0 mm
03:20 AM 34.3°F1.3°C 32.5°F0.3°C 93% 2.3 mph SSE3.7 kmh SSE 3.4 mph5.5 kmh 29.69 in1005.4 mb 0.00 in0.0 mm 0.00 in0.0 mm 0.00 in0.0 mm
03:30 AM 34.0°F1.1°C 32.4°F0.2°C 94% 2.2 mph SSW3.5 kmh SSW 3.4 mph5.5 kmh 29.69 in1005.4 mb 0.00 in0.0 mm 0.00 in0.0 mm 0.00 in0.0 mm
03:40 AM 33.8°F1.0°C 32.3°F0.2°C 94% 2.4 mph SW3.9 kmh SW 3.4 mph5.5 kmh 29.69 in1005.4 mb 0.00 in0.0 mm 0.00 in0.0 mm 0.00 in0.0 mm
03:50 AM 33.4°F0.8°C 31.9°F-0.1°C 94% 2.5 mph SW4.0 kmh SW 3.4 mph5.5 kmh 29.68 in1005.1 mb 0.00 in0.0 mm 0.00 in0.0 mm 0.00 in0.0 mm
04:00 AM 33.3°F0.7°C 31.7°F-0.2°C 94% 2.2 mph W3.5 kmh W 2.5 mph4.0 kmh 29.69 in1005.4 mb 0.00 in0.0 mm 0.00 in0.0 mm 0.00 in0.0 mm
04:10 AM 33.3°F0.7°C 31.7°F-0.2°C 94% 3.0 mph WSW4.8 kmh WSW 4.2 mph6.8 kmh 29.69 in1005.4 mb 0.00 in0.0 mm 0.00 in0.0 mm 0.00 in0.0 mm
04:20 AM 33.3°F0.7°C 31.7°F-0.2°C 94% 3.9 mph SW6.3 kmh SW 4.9 mph7.9 kmh 29.69 in1005.4 mb 0.00 in0.0 mm 0.00 in0.0 mm 0.00 in0.0 mm
04:30 AM 33.3°F0.7°C 31.7°F-0.2°C 94% 4.5 mph SW7.2 kmh SW 7.6 mph12.2 kmh 29.70 in1005.8 mb 0.00 in0.0 mm 0.00 in0.0 mm 0.00 in0.0 mm
04:40 AM 33.3°F0.7°C 31.7°F-0.2°C 94% 4.4 mph SW7.1 kmh SW 4.9 mph7.9 kmh 29.69 in1005.4 mb 0.00 in0.0 mm 0.00 in0.0 mm 0.00 in0.0 mm
04:50 AM 33.1°F0.6°C 31.3°F-0.4°C 93% 3.8 mph WNW6.1 kmh WNW 4.2 mph6.8 kmh 29.70 in1005.8 mb 0.00 in0.0 mm 0.00 in0.0 mm 0.00 in0.0 mm
05:00 AM 33.1°F0.6°C 31.3°F-0.4°C 93% 2.7 mph SW4.3 kmh SW 4.2 mph6.8 kmh 29.70 in1005.8 mb 0.00 in0.0 mm 0.00 in0.0 mm 0.00 in0.0 mm
05:10 AM 32.9°F0.5°C 31.1°F-0.5°C 93% 2.8 mph SW4.5 kmh SW 3.4 mph5.5 kmh 29.70 in1005.8 mb 0.00 in0.0 mm 0.00 in0.0 mm 0.00 in0.0 mm
05:20 AM 33.1°F0.6°C 31.3°F-0.4°C 93% 3.7 mph SSW6.0 kmh SSW 4.2 mph6.8 kmh 29.71 in1006.1 mb 0.00 in0.0 mm 0.00 in0.0 mm 0.00 in0.0 mm
05:30 AM 33.3°F0.7°C 31.7°F-0.2°C 94% 3.6 mph SSW5.8 kmh SSW 4.2 mph6.8 kmh 29.71 in1006.1 mb 0.00 in0.0 mm 0.00 in0.0 mm 0.00 in0.0 mm
05:40 AM 33.4°F0.8°C 31.9°F-0.1°C 94% 4.3 mph WSW6.9 kmh WSW 6.6 mph10.6 kmh 29.71 in1006.1 mb 0.00 in0.0 mm 0.00 in0.0 mm 0.00 in0.0 mm
05:50 AM 34.0°F1.1°C 32.4°F0.2°C 94% 3.7 mph SW6.0 kmh SW 4.9 mph7.9 kmh 29.71 in1006.1 mb 0.00 in0.0 mm 0.00 in0.0 mm 0.00 in0.0 mm
06:00 AM 34.5°F1.4°C 33.0°F0.6°C 94% 4.0 mph SE6.4 kmh SE 5.9 mph9.5 kmh 29.71 in1006.1 mb 0.00 in0.0 mm 0.00 in0.0 mm 0.00 in0.0 mm
06:10 AM 34.9°F1.6°C 33.3°F0.7°C 94% 4.6 mph S7.4 kmh S 4.2 mph6.8 kmh 29.71 in1006.1 mb 0.00 in0.0 mm 0.00 in0.0 mm 0.00 in0.0 mm
06:20 AM 34.9°F1.6°C 33.3°F0.7°C 94% 4.4 mph SW7.1 kmh SW 5.9 mph9.5 kmh 29.71 in1006.1 mb 0.00 in0.0 mm 0.00 in0.0 mm 0.00 in0.0 mm
06:30 AM 34.9°F1.6°C 33.3°F0.7°C 94% 3.4 mph SW5.5 kmh SW 4.2 mph6.8 kmh 29.71 in1006.1 mb 0.00 in0.0 mm 0.00 in0.0 mm 0.00 in0.0 mm
06:40 AM 35.1°F1.7°C 33.5°F0.8°C 94% 3.3 mph SW5.3 kmh SW 5.9 mph9.5 kmh 29.71 in1006.1 mb 0.00 in0.0 mm 0.00 in0.0 mm 0.00 in0.0 mm
06:50 AM 36.0°F2.2°C 34.7°F1.5°C 95% 3.5 mph WSW5.6 kmh WSW 4.9 mph7.9 kmh 29.71 in1006.1 mb 0.00 in0.0 mm 0.00 in0.0 mm 0.00 in0.0 mm
07:00 AM 37.4°F3.0°C 36.4°F2.4°C 96% 5.5 mph SW8.9 kmh SW 7.6 mph12.2 kmh 29.72 in1006.4 mb 0.00 in0.0 mm 0.00 in0.0 mm 0.00 in0.0 mm
07:10 AM 38.3°F3.5°C 37.3°F2.9°C 96% 4.8 mph SSW7.7 kmh SSW 5.9 mph9.5 kmh 29.71 in1006.1 mb 0.00 in0.0 mm 0.00 in0.0 mm 0.00 in0.0 mm
07:20 AM 39.4°F4.1°C 38.6°F3.7°C 97% 5.6 mph SSW9.0 kmh SSW 6.6 mph10.6 kmh 29.72 in1006.4 mb 0.00 in0.0 mm 0.00 in0.0 mm 0.00 in0.0 mm
07:30 AM 40.6°F4.8°C 39.6°F4.2°C 96% 4.1 mph SSW6.6 kmh SSW 4.9 mph7.9 kmh 29.72 in1006.4 mb 0.00 in0.0 mm 0.00 in0.0 mm 0.00 in0.0 mm
07:40 AM 41.9°F5.5°C 40.6°F4.8°C 95% 4.3 mph SW6.9 kmh SW 8.4 mph13.5 kmh 29.72 in1006.4 mb 0.00 in0.0 mm 0.00 in0.0 mm 0.00 in0.0 mm
07:50 AM 42.8°F6.0°C 39.2°F4.0°C 87% 6.5 mph SW10.5 kmh SW 8.4 mph13.5 kmh 29.72 in1006.4 mb 0.00 in0.0 mm 0.00 in0.0 mm 0.00 in0.0 mm
08:00 AM 43.7°F6.5°C 38.9°F3.8°C 83% 6.3 mph NNE10.1 kmh NNE 6.6 mph10.6 kmh 29.72 in1006.4 mb 0.00 in0.0 mm 0.00 in0.0 mm 0.00 in0.0 mm
08:10 AM 44.4°F6.9°C 39.3°F4.1°C 82% 5.3 mph WSW8.5 kmh WSW 6.6 mph10.6 kmh 29.73 in1006.8 mb 0.00 in0.0 mm 0.00 in0.0 mm 0.00 in0.0 mm
08:20 AM 45.3°F7.4°C 39.5°F4.2°C 80% 5.2 mph SSW8.4 kmh SSW 9.1 mph14.6 kmh 29.72 in1006.4 mb 0.00 in0.0 mm 0.00 in0.0 mm 0.00 in0.0 mm
08:30 AM 46.0°F7.8°C 40.2°F4.6°C 80% 6.9 mph SW11.1 kmh SW 9.1 mph14.6 kmh 29.73 in1006.8 mb 0.00 in0.0 mm 0.00 in0.0 mm 0.00 in0.0 mm
08:40 AM 46.4°F8.0°C 40.2°F4.6°C 79% 7.8 mph S12.6 kmh S 10.8 mph17.4 kmh 29.72 in1006.4 mb 0.00 in0.0 mm 0.00 in0.0 mm 0.00 in0.0 mm
08:50 AM 49.3°F9.6°C 42.0°F5.6°C 76% 7.1 mph S11.4 kmh S 11.8 mph19.0 kmh 29.73 in1006.8 mb 0.00 in0.0 mm 0.00 in0.0 mm 0.00 in0.0 mm
09:00 AM 52.0°F11.1°C 41.7°F5.4°C 68% 6.4 mph WNW10.3 kmh WNW 9.1 mph14.6 kmh 29.73 in1006.8 mb 0.00 in0.0 mm 0.00 in0.0 mm 0.00 in0.0 mm
09:10 AM 53.4°F11.9°C 41.5°F5.3°C 64% 6.4 mph S10.3 kmh S 8.4 mph13.5 kmh 29.73 in1006.8 mb 0.00 in0.0 mm 0.00 in0.0 mm 0.00 in0.0 mm
09:20 AM 54.0°F12.2°C 41.2°F5.1°C 62% 7.7 mph SW12.4 kmh SW 10.1 mph16.3 kmh 29.73 in1006.8 mb 0.00 in0.0 mm 0.00 in0.0 mm 0.00 in0.0 mm
09:30 AM 55.0°F12.8°C 41.4°F5.2°C 60% 6.8 mph S10.9 kmh S 9.1 mph14.6 kmh 29.73 in1006.8 mb 0.00 in0.0 mm 0.00 in0.0 mm 0.00 in0.0 mm
09:40 AM 55.0°F12.8°C 39.6°F4.2°C 56% 8.4 mph WSW13.5 kmh WSW 10.1 mph16.3 kmh 29.73 in1006.8 mb 0.00 in0.0 mm 0.00 in0.0 mm 0.00 in0.0 mm
09:50 AM 55.8°F13.2°C 39.8°F4.3°C 55% 8.6 mph WNW13.8 kmh WNW 10.8 mph17.4 kmh 29.73 in1006.8 mb 0.00 in0.0 mm 0.00 in0.0 mm 0.00 in0.0 mm
10:00 AM 56.5°F13.6°C 39.5°F4.2°C 53% 7.9 mph W12.7 kmh W 8.4 mph13.5 kmh 29.72 in1006.4 mb 0.00 in0.0 mm 0.00 in0.0 mm 0.00 in0.0 mm
10:10 AM 57.2°F14.0°C 39.7°F4.3°C 52% 6.8 mph WSW10.9 kmh WSW 7.6 mph12.2 kmh 29.72 in1006.4 mb 0.00 in0.0 mm 0.00 in0.0 mm 0.00 in0.0 mm
10:20 AM 57.6°F14.2°C 36.9°F2.7°C 46% 8.7 mph S14.0 kmh S 10.1 mph16.3 kmh 29.72 in1006.4 mb 0.00 in0.0 mm 0.00 in0.0 mm 0.00 in0.0 mm
10:30 AM 57.2°F14.0°C 36.6°F2.6°C 46% 9.2 mph SSW14.8 kmh SSW 10.8 mph17.4 kmh 29.73 in1006.8 mb 0.00 in0.0 mm 0.00 in0.0 mm 0.00 in0.0 mm
10:40 AM 58.5°F14.7°C 37.2°F2.9°C 45% 8.5 mph S13.7 kmh S 10.8 mph17.4 kmh 29.73 in1006.8 mb 0.00 in0.0 mm 0.00 in0.0 mm 0.00 in0.0 mm
10:50 AM 58.5°F14.7°C 36.0°F2.2°C 43% 9.2 mph WSW14.8 kmh WSW 13.3 mph21.4 kmh 29.73 in1006.8 mb 0.00 in0.0 mm 0.00 in0.0 mm 0.00 in0.0 mm
11:00 AM 59.0°F15.0°C 36.5°F2.5°C 43% 8.5 mph SW13.7 kmh SW 10.1 mph16.3 kmh 29.73 in1006.8 mb 0.00 in0.0 mm 0.00 in0.0 mm 0.00 in0.0 mm
11:10 AM 59.4°F15.2°C 36.2°F2.3°C 42% 8.3 mph SW13.4 kmh SW 11.8 mph19.0 kmh 29.73 in1006.8 mb 0.00 in0.0 mm 0.00 in0.0 mm 0.00 in0.0 mm
11:20 AM 60.3°F15.7°C 37.1°F2.8°C 42% 8.7 mph WSW14.0 kmh WSW 9.1 mph14.6 kmh 29.72 in1006.4 mb 0.00 in0.0 mm 0.00 in0.0 mm 0.00 in0.0 mm
11:30 AM 59.9°F15.5°C 36.7°F2.6°C 42% 8.9 mph SW14.3 kmh SW 12.5 mph20.1 kmh 29.73 in1006.8 mb 0.00 in0.0 mm 0.00 in0.0 mm 0.00 in0.0 mm
11:40 AM 59.9°F15.5°C 36.7°F2.6°C 42% 9.6 mph SSW15.4 kmh SSW 11.8 mph19.0 kmh 29.73 in1006.8 mb 0.00 in0.0 mm 0.00 in0.0 mm 0.00 in0.0 mm
11:50 AM 60.6°F15.9°C 38.0°F3.3°C 43% 7.2 mph S11.6 kmh S 9.1 mph14.6 kmh 29.73 in1006.8 mb 0.00 in0.0 mm 0.00 in0.0 mm 0.00 in0.0 mm
12:00 PM 61.2°F16.2°C 35.3°F1.8°C 38% 9.9 mph S15.9 kmh S 11.8 mph19.0 kmh 29.72 in1006.4 mb 0.00 in0.0 mm 0.00 in0.0 mm 0.00 in0.0 mm
12:10 PM 60.1°F15.6°C 36.9°F2.7°C 42% 10.0 mph E16.1 kmh E 10.8 mph17.4 kmh 29.73 in1006.8 mb 0.00 in0.0 mm 0.00 in0.0 mm 0.00 in0.0 mm
12:20 PM 60.8°F16.0°C 33.7°F0.9°C 36% 9.7 mph W15.6 kmh W 11.8 mph19.0 kmh 29.73 in1006.8 mb 0.00 in0.0 mm 0.00 in0.0 mm 0.00 in0.0 mm
12:30 PM 60.4°F15.8°C 34.7°F1.5°C 38% 9.1 mph WSW14.6 kmh WSW 10.8 mph17.4 kmh 29.72 in1006.4 mb 0.00 in0.0 mm 0.00 in0.0 mm 0.00 in0.0 mm
12:40 PM 60.8°F16.0°C 36.3°F2.4°C 40% 10.6 mph SW17.1 kmh SW 10.8 mph17.4 kmh 29.73 in1006.8 mb 0.00 in0.0 mm 0.00 in0.0 mm 0.00 in0.0 mm
12:50 PM 58.8°F14.9°C 36.4°F2.4°C 43% 9.8 mph S15.8 kmh S 12.5 mph20.1 kmh 29.73 in1006.8 mb 0.00 in0.0 mm 0.00 in0.0 mm 0.00 in0.0 mm
01:00 PM 57.7°F14.3°C 37.1°F2.8°C 46% 9.8 mph S15.8 kmh S 12.5 mph20.1 kmh 29.73 in1006.8 mb 0.00 in0.0 mm 0.00 in0.0 mm 0.00 in0.0 mm
01:10 PM 56.7°F13.7°C 36.6°F2.6°C 47% 9.7 mph SW15.6 kmh SW 9.1 mph14.6 kmh 29.73 in1006.8 mb 0.00 in0.0 mm 0.00 in0.0 mm 0.00 in0.0 mm
01:20 PM 55.2°F12.9°C 37.4°F3.0°C 51% 9.3 mph SSW15.0 kmh SSW 10.8 mph17.4 kmh 29.73 in1006.8 mb 0.00 in0.0 mm 0.00 in0.0 mm 0.00 in0.0 mm
01:30 PM 54.9°F12.7°C 37.1°F2.8°C 51% 9.3 mph SSW15.0 kmh SSW 10.1 mph16.3 kmh 29.73 in1006.8 mb 0.00 in0.0 mm 0.00 in0.0 mm 0.00 in0.0 mm
01:40 PM 54.3°F12.4°C 37.5°F3.1°C 53% 8.6 mph SSW13.8 kmh SSW 11.8 mph19.0 kmh 29.72 in1006.4 mb 0.00 in0.0 mm 0.00 in0.0 mm 0.00 in0.0 mm
01:50 PM 55.0°F12.8°C 38.7°F3.7°C 54% 8.3 mph S13.4 kmh S 10.8 mph17.4 kmh 29.72 in1006.4 mb 0.00 in0.0 mm 0.00 in0.0 mm 0.00 in0.0 mm
02:00 PM 55.9°F13.3°C 38.6°F3.7°C 52% 10.2 mph SW16.4 kmh SW 13.3 mph21.4 kmh 29.72 in1006.4 mb 0.00 in0.0 mm 0.00 in0.0 mm 0.00 in0.0 mm
02:10 PM 55.0°F12.8°C 37.7°F3.2°C 52% 9.7 mph SE15.6 kmh SE 10.8 mph17.4 kmh 29.72 in1006.4 mb 0.00 in0.0 mm 0.00 in0.0 mm 0.00 in0.0 mm
02:20 PM 55.6°F13.1°C 39.2°F4.0°C 54% 9.2 mph SW14.8 kmh SW 11.8 mph19.0 kmh 29.72 in1006.4 mb 0.00 in0.0 mm 0.00 in0.0 mm 0.00 in0.0 mm
02:30 PM 56.8°F13.8°C 38.4°F3.6°C 50% 11.7 mph SW18.8 kmh SW 15.0 mph24.1 kmh 29.71 in1006.1 mb 0.00 in0.0 mm 0.00 in0.0 mm 0.00 in0.0 mm
02:40 PM 55.9°F13.3°C 39.0°F3.9°C 53% 14.6 mph S23.5 kmh S 16.0 mph25.7 kmh 29.72 in1006.4 mb 0.00 in0.0 mm 0.00 in0.0 mm 0.00 in0.0 mm
02:50 PM 55.2°F12.9°C 38.9°F3.8°C 54% 13.9 mph SSW22.4 kmh SSW 15.0 mph24.1 kmh 29.71 in1006.1 mb 0.00 in0.0 mm 0.00 in0.0 mm 0.00 in0.0 mm
03:00 PM 54.9°F12.7°C 39.0°F3.9°C 55% 10.0 mph WSW16.1 kmh WSW 11.8 mph19.0 kmh 29.71 in1006.1 mb 0.00 in0.0 mm 0.00 in0.0 mm 0.00 in0.0 mm
03:10 PM 55.8°F13.2°C 39.8°F4.3°C 55% 10.3 mph SSW16.6 kmh SSW 11.8 mph19.0 kmh 29.71 in1006.1 mb 0.00 in0.0 mm 0.00 in0.0 mm 0.00 in0.0 mm
03:20 PM 57.7°F14.3°C 40.2°F4.6°C 52% 12.7 mph W20.4 kmh W 14.3 mph23.0 kmh 29.71 in1006.1 mb 0.00 in0.0 mm 0.00 in0.0 mm 0.00 in0.0 mm
03:30 PM 57.4°F14.1°C 39.9°F4.4°C 52% 13.0 mph W20.9 kmh W 13.3 mph21.4 kmh 29.70 in1005.8 mb 0.00 in0.0 mm 0.00 in0.0 mm 0.00 in0.0 mm
03:40 PM 56.3°F13.5°C 39.4°F4.1°C 53% 13.5 mph SSW21.7 kmh SSW 17.5 mph28.2 kmh 29.70 in1005.8 mb 0.00 in0.0 mm 0.00 in0.0 mm 0.00 in0.0 mm
03:50 PM 55.6°F13.1°C 39.2°F4.0°C 54% 13.4 mph SSW21.6 kmh SSW 14.3 mph23.0 kmh 29.70 in1005.8 mb 0.00 in0.0 mm 0.00 in0.0 mm 0.00 in0.0 mm
04:00 PM 55.0°F12.8°C 40.1°F4.5°C 57% 12.9 mph SSW20.8 kmh SSW 12.5 mph20.1 kmh 29.69 in1005.4 mb 0.00 in0.0 mm 0.00 in0.0 mm 0.00 in0.0 mm
04:10 PM 55.4°F13.0°C 40.4°F4.7°C 57% 14.7 mph S23.7 kmh S 15.0 mph24.1 kmh 29.69 in1005.4 mb 0.00 in0.0 mm 0.00 in0.0 mm 0.00 in0.0 mm
04:20 PM 56.3°F13.5°C 39.9°F4.4°C 54% 13.1 mph S21.1 kmh S 12.5 mph20.1 kmh 29.69 in1005.4 mb 0.00 in0.0 mm 0.00 in0.0 mm 0.00 in0.0 mm
04:30 PM 56.5°F13.6°C 40.5°F4.7°C 55% 13.8 mph S22.2 kmh S 15.0 mph24.1 kmh 29.68 in1005.1 mb 0.00 in0.0 mm 0.00 in0.0 mm 0.00 in0.0 mm
04:40 PM 56.5°F13.6°C 39.5°F4.2°C 53% 14.6 mph S23.5 kmh S 16.0 mph25.7 kmh 29.68 in1005.1 mb 0.00 in0.0 mm 0.00 in0.0 mm 0.00 in0.0 mm
04:50 PM 55.4°F13.0°C 38.5°F3.6°C 53% 11.0 mph SW17.7 kmh SW 13.3 mph21.4 kmh 29.68 in1005.1 mb 0.00 in0.0 mm 0.00 in0.0 mm 0.00 in0.0 mm
05:00 PM 55.8°F13.2°C 38.9°F3.8°C 53% 10.9 mph SE17.5 kmh SE 12.5 mph20.1 kmh 29.68 in1005.1 mb 0.00 in0.0 mm 0.00 in0.0 mm 0.00 in0.0 mm
05:10 PM 55.9°F13.3°C 37.0°F2.8°C 49% 11.0 mph WSW17.7 kmh WSW 13.3 mph21.4 kmh 29.68 in1005.1 mb 0.00 in0.0 mm 0.00 in0.0 mm 0.00 in0.0 mm
05:20 PM 56.1°F13.4°C 38.7°F3.7°C 52% 11.1 mph SSW17.9 kmh SSW 12.5 mph20.1 kmh 29.68 in1005.1 mb 0.00 in0.0 mm 0.00 in0.0 mm 0.00 in0.0 mm
05:30 PM 55.8°F13.2°C 38.4°F3.6°C 52% 12.6 mph SSW20.3 kmh SSW 16.0 mph25.7 kmh 29.68 in1005.1 mb 0.00 in0.0 mm 0.00 in0.0 mm 0.00 in0.0 mm
05:40 PM 54.9°F12.7°C 38.5°F3.6°C 54% 11.6 mph WSW18.7 kmh WSW 12.5 mph20.1 kmh 29.68 in1005.1 mb 0.00 in0.0 mm 0.00 in0.0 mm 0.00 in0.0 mm
05:50 PM 54.5°F12.5°C 39.1°F3.9°C 56% 10.0 mph S16.1 kmh S 10.1 mph16.3 kmh 29.68 in1005.1 mb 0.00 in0.0 mm 0.00 in0.0 mm 0.00 in0.0 mm
06:00 PM 53.8°F12.1°C 38.9°F3.8°C 57% 10.5 mph S16.9 kmh S 10.8 mph17.4 kmh 29.68 in1005.1 mb 0.00 in0.0 mm 0.00 in0.0 mm 0.00 in0.0 mm
06:10 PM 53.1°F11.7°C 40.0°F4.4°C 61% 9.8 mph SW15.8 kmh SW 9.1 mph14.6 kmh 29.68 in1005.1 mb 0.00 in0.0 mm 0.00 in0.0 mm 0.00 in0.0 mm
06:20 PM 52.3°F11.3°C 40.1°F4.5°C 63% 8.6 mph S13.8 kmh S 10.8 mph17.4 kmh 29.69 in1005.4 mb 0.00 in0.0 mm 0.00 in0.0 mm 0.00 in0.0 mm
06:30 PM 51.8°F11.0°C 40.4°F4.7°C 65% 8.4 mph S13.5 kmh S 8.4 mph13.5 kmh 29.69 in1005.4 mb 0.00 in0.0 mm 0.00 in0.0 mm 0.00 in0.0 mm
06:40 PM 51.3°F10.7°C 41.4°F5.2°C 69% 8.6 mph SSW13.8 kmh SSW 10.8 mph17.4 kmh 29.69 in1005.4 mb 0.00 in0.0 mm 0.00 in0.0 mm 0.00 in0.0 mm
06:50 PM 50.9°F10.5°C 42.2°F5.7°C 72% 8.5 mph S13.7 kmh S 10.1 mph16.3 kmh 29.70 in1005.8 mb 0.00 in0.0 mm 0.00 in0.0 mm 0.00 in0.0 mm
07:00 PM 50.2°F10.1°C 41.9°F5.5°C 73% 8.5 mph SW13.7 kmh SW 10.8 mph17.4 kmh 29.69 in1005.4 mb 0.00 in0.0 mm 0.00 in0.0 mm 0.00 in0.0 mm
07:10 PM 49.8°F9.9°C 41.9°F5.5°C 74% 11.0 mph SW17.7 kmh SW 11.8 mph19.0 kmh 29.70 in1005.8 mb 0.00 in0.0 mm 0.00 in0.0 mm 0.00 in0.0 mm
07:20 PM 49.6°F9.8°C 42.0°F5.6°C 75% 12.2 mph S19.6 kmh S 11.8 mph19.0 kmh 29.69 in1005.4 mb 0.00 in0.0 mm 0.00 in0.0 mm 0.00 in0.0 mm
07:30 PM 49.3°F9.6°C 42.4°F5.8°C 77% 12.6 mph S20.3 kmh S 10.8 mph17.4 kmh 29.69 in1005.4 mb 0.00 in0.0 mm 0.00 in0.0 mm 0.00 in0.0 mm
07:40 PM 49.1°F9.5°C 42.2°F5.7°C 77% 10.1 mph S16.3 kmh S 11.8 mph19.0 kmh 29.69 in1005.4 mb 0.00 in0.0 mm 0.00 in0.0 mm 0.00 in0.0 mm
07:50 PM 49.1°F9.5°C 42.5°F5.8°C 78% 12.3 mph S19.8 kmh S 12.5 mph20.1 kmh 29.69 in1005.4 mb 0.00 in0.0 mm 0.00 in0.0 mm 0.00 in0.0 mm
08:00 PM 49.1°F9.5°C 42.5°F5.8°C 78% 12.1 mph SE19.5 kmh SE 13.3 mph21.4 kmh 29.70 in1005.8 mb 0.00 in0.0 mm 0.00 in0.0 mm 0.00 in0.0 mm
08:10 PM 48.7°F9.3°C 43.2°F6.2°C 81% 9.7 mph S15.6 kmh S 10.1 mph16.3 kmh 29.70 in1005.8 mb 0.00 in0.0 mm 0.00 in0.0 mm 0.00 in0.0 mm
08:20 PM 48.2°F9.0°C 43.0°F6.1°C 82% 13.1 mph S21.1 kmh S 12.5 mph20.1 kmh 29.69 in1005.4 mb 0.00 in0.0 mm 0.00 in0.0 mm 0.00 in0.0 mm
08:30 PM 47.8°F8.8°C 42.9°F6.1°C 83% 13.3 mph S21.4 kmh S 14.3 mph23.0 kmh 29.70 in1005.8 mb 0.00 in0.0 mm 0.00 in0.0 mm 0.00 in0.0 mm
08:40 PM 47.7°F8.7°C 42.8°F6.0°C 83% 14.2 mph S22.9 kmh S 15.0 mph24.1 kmh 29.69 in1005.4 mb 0.00 in0.0 mm 0.00 in0.0 mm 0.00 in0.0 mm
08:50 PM 47.5°F8.6°C 42.3°F5.7°C 82% 13.9 mph S22.4 kmh S 16.0 mph25.7 kmh 29.69 in1005.4 mb 0.00 in0.0 mm 0.00 in0.0 mm 0.00 in0.0 mm
09:00 PM 47.3°F8.5°C 41.8°F5.4°C 81% 15.7 mph SSW25.3 kmh SSW 16.7 mph26.9 kmh 29.69 in1005.4 mb 0.00 in0.0 mm 0.00 in0.0 mm 0.00 in0.0 mm
09:10 PM 47.1°F8.4°C 41.6°F5.3°C 81% 15.0 mph S24.1 kmh S 16.7 mph26.9 kmh 29.69 in1005.4 mb 0.00 in0.0 mm 0.00 in0.0 mm 0.00 in0.0 mm
09:20 PM 46.8°F8.2°C 41.6°F5.3°C 82% 15.0 mph S24.1 kmh S 16.7 mph26.9 kmh 29.69 in1005.4 mb 0.00 in0.0 mm 0.00 in0.0 mm 0.00 in0.0 mm
09:30 PM 46.8°F8.2°C 41.6°F5.3°C 82% 16.4 mph SSW26.4 kmh SSW 18.5 mph29.8 kmh 29.69 in1005.4 mb 0.00 in0.0 mm 0.00 in0.0 mm 0.00 in0.0 mm
09:40 PM 46.4°F8.0°C 41.2°F5.1°C 82% 13.9 mph S22.4 kmh S 15.0 mph24.1 kmh 29.69 in1005.4 mb 0.00 in0.0 mm 0.00 in0.0 mm 0.00 in0.0 mm
09:50 PM 46.2°F7.9°C 41.3°F5.2°C 83% 14.8 mph SE23.8 kmh SE 13.3 mph21.4 kmh 29.68 in1005.1 mb 0.00 in0.0 mm 0.00 in0.0 mm 0.00 in0.0 mm
10:00 PM 46.0°F7.8°C 41.2°F5.1°C 83% 14.7 mph SSE23.7 kmh SSE 16.7 mph26.9 kmh 29.68 in1005.1 mb 0.00 in0.0 mm 0.00 in0.0 mm 0.00 in0.0 mm
10:10 PM 46.0°F7.8°C 41.2°F5.1°C 83% 13.5 mph SSE21.7 kmh SSE 16.0 mph25.7 kmh 29.68 in1005.1 mb 0.00 in0.0 mm 0.00 in0.0 mm 0.00 in0.0 mm
10:20 PM 45.9°F7.7°C 41.3°F5.2°C 84% 15.8 mph S25.4 kmh S 15.0 mph24.1 kmh 29.67 in1004.7 mb 0.00 in0.0 mm 0.00 in0.0 mm 0.00 in0.0 mm
10:30 PM 45.9°F7.7°C 41.3°F5.2°C 84% 15.8 mph WSW25.4 kmh WSW 15.0 mph24.1 kmh 29.68 in1005.1 mb 0.00 in0.0 mm 0.00 in0.0 mm 0.00 in0.0 mm
10:40 PM 45.7°F7.6°C 41.1°F5.1°C 84% 15.7 mph S25.3 kmh S 17.5 mph28.2 kmh 29.68 in1005.1 mb 0.00 in0.0 mm 0.00 in0.0 mm 0.00 in0.0 mm
10:50 PM 45.5°F7.5°C 40.9°F4.9°C 84% 15.3 mph SSE24.6 kmh SSE 15.0 mph24.1 kmh 29.68 in1005.1 mb 0.00 in0.0 mm 0.00 in0.0 mm 0.00 in0.0 mm
11:00 PM 45.5°F7.5°C 40.9°F4.9°C 84% 17.0 mph S27.4 kmh S 20.2 mph32.5 kmh 29.67 in1004.7 mb 0.00 in0.0 mm 0.00 in0.0 mm 0.00 in0.0 mm
11:10 PM 45.5°F7.5°C 40.9°F4.9°C 84% 18.3 mph SSE29.5 kmh SSE 23.4 mph37.7 kmh 29.67 in1004.7 mb 0.00 in0.0 mm 0.00 in0.0 mm 0.00 in0.0 mm
11:20 PM 45.5°F7.5°C 40.9°F4.9°C 84% 17.8 mph S28.6 kmh S 17.5 mph28.2 kmh 29.67 in1004.7 mb 0.00 in0.0 mm 0.00 in0.0 mm 0.00 in0.0 mm
11:30 PM 45.3°F7.4°C 40.8°F4.9°C 84% 19.0 mph S30.6 kmh S 20.9 mph33.6 kmh 29.67 in1004.7 mb 0.00 in0.0 mm 0.00 in0.0 mm 0.00 in0.0 mm
11:40 PM 45.3°F7.4°C 40.8°F4.9°C 84% 18.6 mph S29.9 kmh S 18.5 mph29.8 kmh 29.67 in1004.7 mb 0.00 in0.0 mm 0.00 in0.0 mm 0.00 in0.0 mm
11:50 PM 45.1°F7.3°C 40.9°F4.9°C 85% 19.8 mph SE31.9 kmh SE 19.2 mph30.9 kmh 29.66 in1004.4 mb 0.00 in0.0 mm 0.00 in0.0 mm 0.00 in0.0 mm